sensor_id;sensor_type;location;lat;lon;timestamp;temperature;humidity
18225;DHT22;9237;48.590;8.854;2023-02-28T00:00:24;-2.30;94.90
18225;DHT22;9237;48.590;8.854;2023-02-28T00:02:51;-2.20;95.00
18225;DHT22;9237;48.590;8.854;2023-02-28T00:05:20;-2.30;95.10
18225;DHT22;9237;48.590;8.854;2023-02-28T00:07:49;-2.30;95.60
18225;DHT22;9237;48.590;8.854;2023-02-28T00:10:17;-2.00;95.20
18225;DHT22;9237;48.590;8.854;2023-02-28T00:12:46;-2.30;95.20
18225;DHT22;9237;48.590;8.854;2023-02-28T00:15:13;-2.20;95.10
18225;DHT22;9237;48.590;8.854;2023-02-28T00:17:39;-2.10;95.00
18225;DHT22;9237;48.590;8.854;2023-02-28T00:20:07;-2.20;95.00
18225;DHT22;9237;48.590;8.854;2023-02-28T00:22:36;-2.30;95.30
18225;DHT22;9237;48.590;8.854;2023-02-28T00:25:05;-2.30;95.70
18225;DHT22;9237;48.590;8.854;2023-02-28T00:27:33;-2.30;95.40
18225;DHT22;9237;48.590;8.854;2023-02-28T00:30:00;-2.40;95.80
18225;DHT22;9237;48.590;8.854;2023-02-28T00:32:27;-2.50;95.90
18225;DHT22;9237;48.590;8.854;2023-02-28T00:34:55;-2.50;96.00
18225;DHT22;9237;48.590;8.854;2023-02-28T00:37:22;-2.50;96.10
18225;DHT22;9237;48.590;8.854;2023-02-28T00:39:49;-2.60;96.30
18225;DHT22;9237;48.590;8.854;2023-02-28T00:42:17;-2.60;96.30
18225;DHT22;9237;48.590;8.854;2023-02-28T00:44:44;-2.60;96.40
18225;DHT22;9237;48.590;8.854;2023-02-28T00:47:10;-2.60;96.40
18225;DHT22;9237;48.590;8.854;2023-02-28T00:49:37;-2.60;96.30
18225;DHT22;9237;48.590;8.854;2023-02-28T00:52:04;-2.60;96.30
18225;DHT22;9237;48.590;8.854;2023-02-28T00:54:31;-2.70;96.50
18225;DHT22;9237;48.590;8.854;2023-02-28T00:56:58;-2.70;96.50
18225;DHT22;9237;48.590;8.854;2023-02-28T00:59:26;-2.70;96.50
18225;DHT22;9237;48.590;8.854;2023-02-28T01:01:53;-2.80;96.60
18225;DHT22;9237;48.590;8.854;2023-02-28T01:04:20;-2.90;96.90
18225;DHT22;9237;48.590;8.854;2023-02-28T01:06:47;-2.90;97.00
18225;DHT22;9237;48.590;8.854;2023-02-28T01:09:14;-2.90;97.10
18225;DHT22;9237;48.590;8.854;2023-02-28T01:11:41;-2.90;97.10
18225;DHT22;9237;48.590;8.854;2023-02-28T01:14:12;-2.90;97.20
18225;DHT22;9237;48.590;8.854;2023-02-28T01:16:40;-3.00;97.70
18225;DHT22;9237;48.590;8.854;2023-02-28T01:19:07;-3.00;97.60
18225;DHT22;9237;48.590;8.854;2023-02-28T01:21:34;-3.00;97.70
18225;DHT22;9237;48.590;8.854;2023-02-28T01:24:02;-3.10;97.70
18225;DHT22;9237;48.590;8.854;2023-02-28T01:26:29;-3.20;98.00
18225;DHT22;9237;48.590;8.854;2023-02-28T01:28:56;-3.10;98.10
18225;DHT22;9237;48.590;8.854;2023-02-28T01:31:23;-3.20;98.10
18225;DHT22;9237;48.590;8.854;2023-02-28T01:33:51;-3.20;98.20
18225;DHT22;9237;48.590;8.854;2023-02-28T01:36:20;-3.20;98.40
18225;DHT22;9237;48.590;8.854;2023-02-28T01:38:47;-3.20;98.40
18225;DHT22;9237;48.590;8.854;2023-02-28T01:41:17;-3.20;98.30
18225;DHT22;9237;48.590;8.854;2023-02-28T01:43:57;-3.20;98.50
18225;DHT22;9237;48.590;8.854;2023-02-28T01:46:24;-3.30;98.70
18225;DHT22;9237;48.590;8.854;2023-02-28T01:48:54;-3.30;98.70
18225;DHT22;9237;48.590;8.854;2023-02-28T01:51:28;-3.20;98.70
18225;DHT22;9237;48.590;8.854;2023-02-28T01:53:58;-3.30;98.90
18225;DHT22;9237;48.590;8.854;2023-02-28T01:56:29;-3.20;99.00
18225;DHT22;9237;48.590;8.854;2023-02-28T01:58:57;-3.20;98.90
18225;DHT22;9237;48.590;8.854;2023-02-28T02:01:26;-3.10;99.00
18225;DHT22;9237;48.590;8.854;2023-02-28T02:03:57;-3.20;98.90
18225;DHT22;9237;48.590;8.854;2023-02-28T02:06:29;-3.20;99.10
18225;DHT22;9237;48.590;8.854;2023-02-28T02:08:56;-3.20;99.30
18225;DHT22;9237;48.590;8.854;2023-02-28T02:11:24;-3.20;99.40
18225;DHT22;9237;48.590;8.854;2023-02-28T02:14:06;-3.30;99.50
18225;DHT22;9237;48.590;8.854;2023-02-28T02:16:48;-3.30;99.70
18225;DHT22;9237;48.590;8.854;2023-02-28T02:19:44;-3.30;99.80
18225;DHT22;9237;48.590;8.854;2023-02-28T02:22:55;-3.30;99.90
18225;DHT22;9237;48.590;8.854;2023-02-28T02:25:28;-3.20;99.90
18225;DHT22;9237;48.590;8.854;2023-02-28T02:31:13;-3.20;99.90
18225;DHT22;9237;48.590;8.854;2023-02-28T02:34:10;-3.20;99.90
18225;DHT22;9237;48.590;8.854;2023-02-28T02:36:46;-3.20;99.90
18225;DHT22;9237;48.590;8.854;2023-02-28T02:39:18;-3.20;99.90
18225;DHT22;9237;48.590;8.854;2023-02-28T02:41:49;-3.20;99.90
18225;DHT22;9237;48.590;8.854;2023-02-28T02:44:21;-3.10;99.90
18225;DHT22;9237;48.590;8.854;2023-02-28T02:46:51;-3.10;99.90
18225;DHT22;9237;48.590;8.854;2023-02-28T02:49:24;-3.10;99.90
18225;DHT22;9237;48.590;8.854;2023-02-28T02:51:53;-3.10;99.90
18225;DHT22;9237;48.590;8.854;2023-02-28T02:54:24;-3.00;99.90
18225;DHT22;9237;48.590;8.854;2023-02-28T02:56:57;-3.00;99.90
18225;DHT22;9237;48.590;8.854;2023-02-28T02:59:25;-3.00;99.90
18225;DHT22;9237;48.590;8.854;2023-02-28T03:01:56;-3.00;99.90
18225;DHT22;9237;48.590;8.854;2023-02-28T03:04:27;-2.90;99.90
18225;DHT22;9237;48.590;8.854;2023-02-28T03:06:56;-2.90;99.90
18225;DHT22;9237;48.590;8.854;2023-02-28T03:09:25;-2.90;99.90
18225;DHT22;9237;48.590;8.854;2023-02-28T03:11:54;-2.90;99.90
18225;DHT22;9237;48.590;8.854;2023-02-28T03:14:31;-2.90;99.90
18225;DHT22;9237;48.590;8.854;2023-02-28T03:17:16;-2.90;99.90
18225;DHT22;9237;48.590;8.854;2023-02-28T03:19:54;-2.90;99.90
18225;DHT22;9237;48.590;8.854;2023-02-28T03:22:38;-2.90;99.90
18225;DHT22;9237;48.590;8.854;2023-02-28T03:25:11;-2.90;99.90
18225;DHT22;9237;48.590;8.854;2023-02-28T03:27:44;-3.00;99.90
18225;DHT22;9237;48.590;8.854;2023-02-28T03:30:22;-3.00;99.90
18225;DHT22;9237;48.590;8.854;2023-02-28T03:32:54;-3.00;99.90
18225;DHT22;9237;48.590;8.854;2023-02-28T03:35:25;-2.90;99.90
18225;DHT22;9237;48.590;8.854;2023-02-28T03:38:05;-2.90;99.90
18225;DHT22;9237;48.590;8.854;2023-02-28T03:40:34;-2.90;99.90
18225;DHT22;9237;48.590;8.854;2023-02-28T03:43:07;-2.80;99.90
18225;DHT22;9237;48.590;8.854;2023-02-28T03:45:37;-2.80;99.90
18225;DHT22;9237;48.590;8.854;2023-02-28T03:48:10;-2.70;99.90
18225;DHT22;9237;48.590;8.854;2023-02-28T03:50:41;-2.70;99.90
18225;DHT22;9237;48.590;8.854;2023-02-28T03:53:11;-2.60;99.90
18225;DHT22;9237;48.590;8.854;2023-02-28T03:55:41;-2.60;99.90
18225;DHT22;9237;48.590;8.854;2023-02-28T03:58:15;-2.50;99.90
18225;DHT22;9237;48.590;8.854;2023-02-28T04:00:49;-2.50;99.90
18225;DHT22;9237;48.590;8.854;2023-02-28T04:03:17;-2.50;99.90
18225;DHT22;9237;48.590;8.854;2023-02-28T04:05:50;-2.50;99.90
18225;DHT22;9237;48.590;8.854;2023-02-28T04:08:18;-2.50;99.90
18225;DHT22;9237;48.590;8.854;2023-02-28T04:10:50;-2.50;99.90
18225;DHT22;9237;48.590;8.854;2023-02-28T04:13:18;-2.40;99.90
18225;DHT22;9237;48.590;8.854;2023-02-28T04:15:44;-2.40;99.90
18225;DHT22;9237;48.590;8.854;2023-02-28T04:18:11;-2.40;99.90
18225;DHT22;9237;48.590;8.854;2023-02-28T04:20:38;-2.40;99.90
18225;DHT22;9237;48.590;8.854;2023-02-28T04:23:06;-2.40;99.90
18225;DHT22;9237;48.590;8.854;2023-02-28T04:25:33;-2.40;99.90
18225;DHT22;9237;48.590;8.854;2023-02-28T04:27:59;-2.30;99.90
18225;DHT22;9237;48.590;8.854;2023-02-28T04:30:26;-2.30;99.90
18225;DHT22;9237;48.590;8.854;2023-02-28T04:32:55;-2.30;99.90
18225;DHT22;9237;48.590;8.854;2023-02-28T04:35:21;-2.30;99.90
18225;DHT22;9237;48.590;8.854;2023-02-28T04:37:48;-2.30;99.90
18225;DHT22;9237;48.590;8.854;2023-02-28T04:40:17;-2.20;99.90
18225;DHT22;9237;48.590;8.854;2023-02-28T04:42:43;-2.30;99.90
18225;DHT22;9237;48.590;8.854;2023-02-28T04:45:10;-2.30;99.90
18225;DHT22;9237;48.590;8.854;2023-02-28T04:47:37;-2.30;99.90
18225;DHT22;9237;48.590;8.854;2023-02-28T04:50:04;-2.20;99.90
18225;DHT22;9237;48.590;8.854;2023-02-28T04:52:31;-2.30;99.90
18225;DHT22;9237;48.590;8.854;2023-02-28T04:54:58;-2.20;99.90
18225;DHT22;9237;48.590;8.854;2023-02-28T04:57:26;-2.20;99.90
18225;DHT22;9237;48.590;8.854;2023-02-28T04:59:53;-2.20;99.90
18225;DHT22;9237;48.590;8.854;2023-02-28T05:02:20;-2.20;99.90
18225;DHT22;9237;48.590;8.854;2023-02-28T05:04:47;-2.20;99.90
18225;DHT22;9237;48.590;8.854;2023-02-28T05:07:13;-2.20;99.90
18225;DHT22;9237;48.590;8.854;2023-02-28T05:09:40;-2.10;99.90
18225;DHT22;9237;48.590;8.854;2023-02-28T05:12:08;-2.10;99.90
18225;DHT22;9237;48.590;8.854;2023-02-28T05:14:37;-2.10;99.90
18225;DHT22;9237;48.590;8.854;2023-02-28T05:17:04;-2.10;99.90
18225;DHT22;9237;48.590;8.854;2023-02-28T05:19:30;-2.10;99.90
18225;DHT22;9237;48.590;8.854;2023-02-28T05:21:57;-2.20;99.90
18225;DHT22;9237;48.590;8.854;2023-02-28T05:24:24;-2.20;99.90
18225;DHT22;9237;48.590;8.854;2023-02-28T05:26:53;-2.20;99.90
18225;DHT22;9237;48.590;8.854;2023-02-28T05:29:20;-2.20;99.90
18225;DHT22;9237;48.590;8.854;2023-02-28T05:31:48;-2.20;99.90
18225;DHT22;9237;48.590;8.854;2023-02-28T05:34:15;-2.20;99.90
18225;DHT22;9237;48.590;8.854;2023-02-28T05:36:42;-2.20;99.90
18225;DHT22;9237;48.590;8.854;2023-02-28T05:39:09;-2.20;99.90
18225;DHT22;9237;48.590;8.854;2023-02-28T05:41:39;-2.20;99.90
18225;DHT22;9237;48.590;8.854;2023-02-28T05:44:06;-2.20;99.90
18225;DHT22;9237;48.590;8.854;2023-02-28T05:46:32;-2.20;99.90
18225;DHT22;9237;48.590;8.854;2023-02-28T05:49:01;-2.20;99.90
18225;DHT22;9237;48.590;8.854;2023-02-28T05:51:28;-2.20;99.90
18225;DHT22;9237;48.590;8.854;2023-02-28T05:53:58;-2.30;99.90
18225;DHT22;9237;48.590;8.854;2023-02-28T05:56:25;-2.20;99.90
18225;DHT22;9237;48.590;8.854;2023-02-28T05:58:52;-2.20;99.90
18225;DHT22;9237;48.590;8.854;2023-02-28T06:01:25;-2.30;99.90
18225;DHT22;9237;48.590;8.854;2023-02-28T06:03:57;-2.30;99.90
18225;DHT22;9237;48.590;8.854;2023-02-28T06:06:25;-2.30;99.90
18225;DHT22;9237;48.590;8.854;2023-02-28T06:08:52;-2.30;99.90
18225;DHT22;9237;48.590;8.854;2023-02-28T06:11:19;-2.20;99.90
18225;DHT22;9237;48.590;8.854;2023-02-28T06:13:46;-2.30;99.90
18225;DHT22;9237;48.590;8.854;2023-02-28T06:16:14;-2.30;99.90
18225;DHT22;9237;48.590;8.854;2023-02-28T06:18:40;-2.20;99.90
18225;DHT22;9237;48.590;8.854;2023-02-28T06:21:07;-2.20;99.90
18225;DHT22;9237;48.590;8.854;2023-02-28T06:23:35;-2.30;99.90
18225;DHT22;9237;48.590;8.854;2023-02-28T06:26:02;-2.20;99.90
18225;DHT22;9237;48.590;8.854;2023-02-28T06:28:29;-2.20;99.90
18225;DHT22;9237;48.590;8.854;2023-02-28T06:30:56;-2.20;99.90
18225;DHT22;9237;48.590;8.854;2023-02-28T06:33:22;-2.20;99.90
18225;DHT22;9237;48.590;8.854;2023-02-28T06:35:51;-2.30;99.90
18225;DHT22;9237;48.590;8.854;2023-02-28T06:38:18;-2.20;99.90
18225;DHT22;9237;48.590;8.854;2023-02-28T06:40:53;-2.20;99.90
18225;DHT22;9237;48.590;8.854;2023-02-28T06:43:19;-2.20;99.90
18225;DHT22;9237;48.590;8.854;2023-02-28T06:45:46;-2.20;99.90
18225;DHT22;9237;48.590;8.854;2023-02-28T06:48:13;-2.10;99.90
18225;DHT22;9237;48.590;8.854;2023-02-28T06:50:40;-2.00;99.90
18225;DHT22;9237;48.590;8.854;2023-02-28T06:53:06;-1.90;99.90
18225;DHT22;9237;48.590;8.854;2023-02-28T06:55:33;-1.90;99.90
18225;DHT22;9237;48.590;8.854;2023-02-28T06:58:01;-1.80;99.90
18225;DHT22;9237;48.590;8.854;2023-02-28T07:00:28;-1.90;99.90
18225;DHT22;9237;48.590;8.854;2023-02-28T07:02:55;-1.90;99.90
18225;DHT22;9237;48.590;8.854;2023-02-28T07:05:22;-1.90;99.90
18225;DHT22;9237;48.590;8.854;2023-02-28T07:07:48;-1.90;99.90
18225;DHT22;9237;48.590;8.854;2023-02-28T07:10:17;-1.90;99.90
18225;DHT22;9237;48.590;8.854;2023-02-28T07:12:45;-1.80;99.90
18225;DHT22;9237;48.590;8.854;2023-02-28T07:15:13;-1.70;99.90
18225;DHT22;9237;48.590;8.854;2023-02-28T07:17:39;-1.70;99.90
18225;DHT22;9237;48.590;8.854;2023-02-28T07:20:07;-1.70;99.90
18225;DHT22;9237;48.590;8.854;2023-02-28T07:22:34;-1.70;99.90
18225;DHT22;9237;48.590;8.854;2023-02-28T07:25:01;-1.60;99.90
18225;DHT22;9237;48.590;8.854;2023-02-28T07:27:28;-1.60;99.90
18225;DHT22;9237;48.590;8.854;2023-02-28T07:29:55;-1.60;99.90
18225;DHT22;9237;48.590;8.854;2023-02-28T07:32:23;-1.50;99.90
18225;DHT22;9237;48.590;8.854;2023-02-28T07:34:49;-1.60;99.90
18225;DHT22;9237;48.590;8.854;2023-02-28T07:37:16;-1.60;99.90
18225;DHT22;9237;48.590;8.854;2023-02-28T07:39:43;-1.60;99.90
18225;DHT22;9237;48.590;8.854;2023-02-28T07:42:10;-1.50;99.90
18225;DHT22;9237;48.590;8.854;2023-02-28T07:44:37;-1.50;99.90
18225;DHT22;9237;48.590;8.854;2023-02-28T07:47:06;-1.40;99.90
18225;DHT22;9237;48.590;8.854;2023-02-28T07:49:35;-1.50;99.90
18225;DHT22;9237;48.590;8.854;2023-02-28T07:52:02;-1.40;99.90
18225;DHT22;9237;48.590;8.854;2023-02-28T07:54:29;-1.30;99.90
18225;DHT22;9237;48.590;8.854;2023-02-28T07:56:56;-1.30;99.90
18225;DHT22;9237;48.590;8.854;2023-02-28T07:59:23;-1.30;99.90
18225;DHT22;9237;48.590;8.854;2023-02-28T08:01:50;-1.30;99.90
18225;DHT22;9237;48.590;8.854;2023-02-28T08:04:17;-1.30;99.90
18225;DHT22;9237;48.590;8.854;2023-02-28T08:06:45;-1.30;99.90
18225;DHT22;9237;48.590;8.854;2023-02-28T08:09:12;-1.30;99.90
18225;DHT22;9237;48.590;8.854;2023-02-28T08:11:40;-1.20;99.90
18225;DHT22;9237;48.590;8.854;2023-02-28T08:14:06;-1.20;99.90
18225;DHT22;9237;48.590;8.854;2023-02-28T08:16:33;-1.10;99.90
18225;DHT22;9237;48.590;8.854;2023-02-28T08:19:00;-1.10;99.90
18225;DHT22;9237;48.590;8.854;2023-02-28T08:21:27;-1.00;99.90
18225;DHT22;9237;48.590;8.854;2023-02-28T08:23:55;-1.00;99.90
18225;DHT22;9237;48.590;8.854;2023-02-28T08:26:22;-1.00;99.90
18225;DHT22;9237;48.590;8.854;2023-02-28T08:28:49;-1.00;99.90
18225;DHT22;9237;48.590;8.854;2023-02-28T08:31:16;-0.90;99.90
18225;DHT22;9237;48.590;8.854;2023-02-28T08:33:44;-0.90;99.90
18225;DHT22;9237;48.590;8.854;2023-02-28T08:36:12;-1.00;99.90
18225;DHT22;9237;48.590;8.854;2023-02-28T08:38:40;-1.00;99.90
18225;DHT22;9237;48.590;8.854;2023-02-28T08:41:11;-0.90;99.90
18225;DHT22;9237;48.590;8.854;2023-02-28T08:43:39;-0.90;99.90
18225;DHT22;9237;48.590;8.854;2023-02-28T08:46:07;-0.90;99.90
18225;DHT22;9237;48.590;8.854;2023-02-28T08:48:35;-0.90;99.90
18225;DHT22;9237;48.590;8.854;2023-02-28T08:51:06;-0.90;99.90
18225;DHT22;9237;48.590;8.854;2023-02-28T08:53:33;-0.90;99.90
18225;DHT22;9237;48.590;8.854;2023-02-28T08:56:01;-0.80;99.90
18225;DHT22;9237;48.590;8.854;2023-02-28T08:58:30;-0.70;99.90
18225;DHT22;9237;48.590;8.854;2023-02-28T09:00:57;-0.70;99.90
18225;DHT22;9237;48.590;8.854;2023-02-28T09:03:24;-0.60;99.90
18225;DHT22;9237;48.590;8.854;2023-02-28T09:05:58;-0.60;99.90
18225;DHT22;9237;48.590;8.854;2023-02-28T09:08:26;-0.60;99.90
18225;DHT22;9237;48.590;8.854;2023-02-28T09:10:53;-0.50;99.90
18225;DHT22;9237;48.590;8.854;2023-02-28T09:13:22;-0.40;99.90
18225;DHT22;9237;48.590;8.854;2023-02-28T09:15:52;-0.50;99.90
18225;DHT22;9237;48.590;8.854;2023-02-28T09:18:19;-0.60;99.90
18225;DHT22;9237;48.590;8.854;2023-02-28T09:20:46;-0.60;99.90
18225;DHT22;9237;48.590;8.854;2023-02-28T09:23:13;-0.40;99.90
18225;DHT22;9237;48.590;8.854;2023-02-28T09:25:45;-0.40;99.90
18225;DHT22;9237;48.590;8.854;2023-02-28T09:28:12;-0.40;99.90
18225;DHT22;9237;48.590;8.854;2023-02-28T09:30:41;-0.30;99.90
18225;DHT22;9237;48.590;8.854;2023-02-28T09:33:09;-0.30;99.90
18225;DHT22;9237;48.590;8.854;2023-02-28T09:35:36;-0.30;99.90
18225;DHT22;9237;48.590;8.854;2023-02-28T09:38:04;-0.20;99.90
18225;DHT22;9237;48.590;8.854;2023-02-28T09:40:36;-0.10;99.90
18225;DHT22;9237;48.590;8.854;2023-02-28T09:43:04;0.10;99.90
18225;DHT22;9237;48.590;8.854;2023-02-28T09:45:35;0.10;99.90
18225;DHT22;9237;48.590;8.854;2023-02-28T09:48:06;-0.10;99.80
18225;DHT22;9237;48.590;8.854;2023-02-28T09:50:40;-0.10;99.90
18225;DHT22;9237;48.590;8.854;2023-02-28T09:53:15;-0.10;99.90
18225;DHT22;9237;48.590;8.854;2023-02-28T09:55:48;0.10;99.90
18225;DHT22;9237;48.590;8.854;2023-02-28T09:58:22;0.30;99.90
18225;DHT22;9237;48.590;8.854;2023-02-28T10:00:56;0.20;99.40
18225;DHT22;9237;48.590;8.854;2023-02-28T10:03:29;0.10;99.80
18225;DHT22;9237;48.590;8.854;2023-02-28T10:06:01;0.20;99.30
18225;DHT22;9237;48.590;8.854;2023-02-28T10:08:36;0.10;99.30
18225;DHT22;9237;48.590;8.854;2023-02-28T10:11:07;0.30;99.00
18225;DHT22;9237;48.590;8.854;2023-02-28T10:13:39;0.40;98.90
18225;DHT22;9237;48.590;8.854;2023-02-28T10:16:14;0.20;98.40
18225;DHT22;9237;48.590;8.854;2023-02-28T10:18:46;0.10;99.10
18225;DHT22;9237;48.590;8.854;2023-02-28T10:21:20;0.40;98.80
18225;DHT22;9237;48.590;8.854;2023-02-28T10:23:48;0.30;98.60
18225;DHT22;9237;48.590;8.854;2023-02-28T10:26:17;0.40;97.90
18225;DHT22;9237;48.590;8.854;2023-02-28T10:28:44;0.40;98.10
18225;DHT22;9237;48.590;8.854;2023-02-28T10:31:14;0.30;97.80
18225;DHT22;9237;48.590;8.854;2023-02-28T10:33:43;0.30;97.70
18225;DHT22;9237;48.590;8.854;2023-02-28T10:36:13;0.50;97.80
18225;DHT22;9237;48.590;8.854;2023-02-28T10:38:44;0.70;97.60
18225;DHT22;9237;48.590;8.854;2023-02-28T10:41:13;0.70;97.60
18225;DHT22;9237;48.590;8.854;2023-02-28T10:43:41;0.80;97.10
18225;DHT22;9237;48.590;8.854;2023-02-28T10:46:14;0.70;96.80
18225;DHT22;9237;48.590;8.854;2023-02-28T10:49:01;0.70;96.50
18225;DHT22;9237;48.590;8.854;2023-02-28T10:51:36;0.70;96.80
18225;DHT22;9237;48.590;8.854;2023-02-28T10:54:04;1.00;97.20
18225;DHT22;9237;48.590;8.854;2023-02-28T10:56:32;1.00;96.20
18225;DHT22;9237;48.590;8.854;2023-02-28T10:59:01;0.70;96.70
18225;DHT22;9237;48.590;8.854;2023-02-28T11:01:36;0.90;96.40
18225;DHT22;9237;48.590;8.854;2023-02-28T11:04:12;0.80;96.50
18225;DHT22;9237;48.590;8.854;2023-02-28T11:06:42;1.00;96.40
18225;DHT22;9237;48.590;8.854;2023-02-28T11:09:19;1.00;96.00
18225;DHT22;9237;48.590;8.854;2023-02-28T11:11:49;1.30;96.40
18225;DHT22;9237;48.590;8.854;2023-02-28T11:14:19;1.50;95.90
18225;DHT22;9237;48.590;8.854;2023-02-28T11:16:47;1.40;95.40
18225;DHT22;9237;48.590;8.854;2023-02-28T11:19:18;1.50;95.50
18225;DHT22;9237;48.590;8.854;2023-02-28T11:21:52;1.60;95.20
18225;DHT22;9237;48.590;8.854;2023-02-28T11:24:24;1.90;95.00
18225;DHT22;9237;48.590;8.854;2023-02-28T11:26:52;1.90;94.50
18225;DHT22;9237;48.590;8.854;2023-02-28T11:29:22;1.40;95.00
18225;DHT22;9237;48.590;8.854;2023-02-28T11:32:13;1.30;94.80
18225;DHT22;9237;48.590;8.854;2023-02-28T11:34:43;1.10;95.00
18225;DHT22;9237;48.590;8.854;2023-02-28T11:37:12;1.00;95.10
18225;DHT22;9237;48.590;8.854;2023-02-28T11:39:41;1.10;94.90
18225;DHT22;9237;48.590;8.854;2023-02-28T11:42:20;1.30;95.00
18225;DHT22;9237;48.590;8.854;2023-02-28T11:44:59;1.60;94.40
18225;DHT22;9237;48.590;8.854;2023-02-28T11:47:33;1.50;94.00
18225;DHT22;9237;48.590;8.854;2023-02-28T11:50:16;1.50;94.50
18225;DHT22;9237;48.590;8.854;2023-02-28T11:52:50;1.50;94.40
18225;DHT22;9237;48.590;8.854;2023-02-28T11:55:25;2.00;94.60
18225;DHT22;9237;48.590;8.854;2023-02-28T11:58:11;2.40;93.80
18225;DHT22;9237;48.590;8.854;2023-02-28T12:00:59;2.60;93.30
18225;DHT22;9237;48.590;8.854;2023-02-28T12:03:33;2.30;92.90
18225;DHT22;9237;48.590;8.854;2023-02-28T12:06:15;2.50;93.40
18225;DHT22;9237;48.590;8.854;2023-02-28T12:08:49;2.20;93.20
18225;DHT22;9237;48.590;8.854;2023-02-28T12:11:29;2.70;93.20
18225;DHT22;9237;48.590;8.854;2023-02-28T12:14:06;3.20;92.70
18225;DHT22;9237;48.590;8.854;2023-02-28T12:16:53;3.00;91.70
18225;DHT22;9237;48.590;8.854;2023-02-28T12:19:26;2.50;92.10
18225;DHT22;9237;48.590;8.854;2023-02-28T12:22:29;2.50;92.80
18225;DHT22;9237;48.590;8.854;2023-02-28T12:25:24;2.30;92.60
18225;DHT22;9237;48.590;8.854;2023-02-28T12:27:58;2.50;92.60
18225;DHT22;9237;48.590;8.854;2023-02-28T12:30:28;2.80;92.50
18225;DHT22;9237;48.590;8.854;2023-02-28T12:33:01;2.60;92.30
18225;DHT22;9237;48.590;8.854;2023-02-28T12:35:33;2.70;92.20
18225;DHT22;9237;48.590;8.854;2023-02-28T12:38:05;3.10;92.30
18225;DHT22;9237;48.590;8.854;2023-02-28T12:40:43;3.20;91.30
18225;DHT22;9237;48.590;8.854;2023-02-28T12:43:13;3.20;92.00
18225;DHT22;9237;48.590;8.854;2023-02-28T12:45:46;3.20;91.20
18225;DHT22;9237;48.590;8.854;2023-02-28T12:48:20;3.20;90.90
18225;DHT22;9237;48.590;8.854;2023-02-28T12:50:48;3.40;91.40
18225;DHT22;9237;48.590;8.854;2023-02-28T12:53:23;3.40;91.00
18225;DHT22;9237;48.590;8.854;2023-02-28T12:56:07;3.30;91.60
18225;DHT22;9237;48.590;8.854;2023-02-28T12:58:38;3.10;91.60
18225;DHT22;9237;48.590;8.854;2023-02-28T13:01:24;3.00;91.80
18225;DHT22;9237;48.590;8.854;2023-02-28T13:04:27;3.10;91.40
18225;DHT22;9237;48.590;8.854;2023-02-28T13:07:08;2.80;91.20
18225;DHT22;9237;48.590;8.854;2023-02-28T13:09:39;2.70;92.00
18225;DHT22;9237;48.590;8.854;2023-02-28T13:12:13;3.00;91.70
18225;DHT22;9237;48.590;8.854;2023-02-28T13:14:42;3.30;91.00
18225;DHT22;9237;48.590;8.854;2023-02-28T13:17:15;3.40;91.30
18225;DHT22;9237;48.590;8.854;2023-02-28T13:19:55;4.00;91.00
18225;DHT22;9237;48.590;8.854;2023-02-28T13:22:37;3.60;90.40
18225;DHT22;9237;48.590;8.854;2023-02-28T13:34:40;4.00;90.60
18225;DHT22;9237;48.590;8.854;2023-02-28T13:37:33;3.70;90.80
18225;DHT22;9237;48.590;8.854;2023-02-28T13:42:49;4.50;90.60
18225;DHT22;9237;48.590;8.854;2023-02-28T13:45:29;4.80;89.80
18225;DHT22;9237;48.590;8.854;2023-02-28T13:48:05;4.80;88.10
18225;DHT22;9237;48.590;8.854;2023-02-28T13:50:42;4.40;87.10
18225;DHT22;9237;48.590;8.854;2023-02-28T13:53:45;5.10;88.40
18225;DHT22;9237;48.590;8.854;2023-02-28T13:56:26;6.10;83.10
18225;DHT22;9237;48.590;8.854;2023-02-28T13:58:55;6.40;82.10
18225;DHT22;9237;48.590;8.854;2023-02-28T14:01:45;6.40;80.50
18225;DHT22;9237;48.590;8.854;2023-02-28T14:04:39;8.10;78.40
18225;DHT22;9237;48.590;8.854;2023-02-28T14:07:09;7.00;76.70
18225;DHT22;9237;48.590;8.854;2023-02-28T14:09:54;6.60;78.00
18225;DHT22;9237;48.590;8.854;2023-02-28T14:12:57;6.30;79.40
18225;DHT22;9237;48.590;8.854;2023-02-28T14:15:39;5.80;80.10
18225;DHT22;9237;48.590;8.854;2023-02-28T14:18:16;4.80;84.80
18225;DHT22;9237;48.590;8.854;2023-02-28T14:20:46;5.60;82.50
18225;DHT22;9237;48.590;8.854;2023-02-28T14:23:19;5.60;82.00
18225;DHT22;9237;48.590;8.854;2023-02-28T14:25:55;6.80;81.50
18225;DHT22;9237;48.590;8.854;2023-02-28T14:28:41;8.30;77.20
18225;DHT22;9237;48.590;8.854;2023-02-28T14:31:13;9.00;71.70
18225;DHT22;9237;48.590;8.854;2023-02-28T14:33:50;9.50;72.20
18225;DHT22;9237;48.590;8.854;2023-02-28T14:36:27;8.80;69.80
18225;DHT22;9237;48.590;8.854;2023-02-28T14:38:59;7.60;74.00
18225;DHT22;9237;48.590;8.854;2023-02-28T14:41:30;8.70;71.80
18225;DHT22;9237;48.590;8.854;2023-02-28T14:43:59;7.50;73.40
18225;DHT22;9237;48.590;8.854;2023-02-28T14:46:30;6.50;78.00
18225;DHT22;9237;48.590;8.854;2023-02-28T14:49:00;6.50;78.30
18225;DHT22;9237;48.590;8.854;2023-02-28T14:51:28;6.20;79.10
18225;DHT22;9237;48.590;8.854;2023-02-28T14:53:59;6.90;78.90
18225;DHT22;9237;48.590;8.854;2023-02-28T14:56:28;8.00;74.00
18225;DHT22;9237;48.590;8.854;2023-02-28T14:58:56;8.20;71.40
18225;DHT22;9237;48.590;8.854;2023-02-28T15:01:24;8.20;71.90
18225;DHT22;9237;48.590;8.854;2023-02-28T15:04:00;8.20;71.70
18225;DHT22;9237;48.590;8.854;2023-02-28T15:06:30;7.40;74.80
18225;DHT22;9237;48.590;8.854;2023-02-28T15:09:10;7.50;74.70
18225;DHT22;9237;48.590;8.854;2023-02-28T15:11:38;8.00;72.30
18225;DHT22;9237;48.590;8.854;2023-02-28T15:14:05;7.80;72.60
18225;DHT22;9237;48.590;8.854;2023-02-28T15:16:35;8.60;71.70
18225;DHT22;9237;48.590;8.854;2023-02-28T15:19:06;8.90;69.50
18225;DHT22;9237;48.590;8.854;2023-02-28T15:21:38;9.00;71.20
18225;DHT22;9237;48.590;8.854;2023-02-28T15:24:10;7.70;71.30
18225;DHT22;9237;48.590;8.854;2023-02-28T15:26:39;8.10;71.70
18225;DHT22;9237;48.590;8.854;2023-02-28T15:29:08;7.90;71.70
18225;DHT22;9237;48.590;8.854;2023-02-28T15:31:41;8.50;71.40
18225;DHT22;9237;48.590;8.854;2023-02-28T15:34:18;8.20;72.60
18225;DHT22;9237;48.590;8.854;2023-02-28T15:36:47;7.40;72.20
18225;DHT22;9237;48.590;8.854;2023-02-28T15:39:20;7.00;74.10
18225;DHT22;9237;48.590;8.854;2023-02-28T15:41:47;7.10;73.40
18225;DHT22;9237;48.590;8.854;2023-02-28T15:44:25;6.90;74.00
18225;DHT22;9237;48.590;8.854;2023-02-28T15:46:58;6.60;74.40
18225;DHT22;9237;48.590;8.854;2023-02-28T15:49:27;6.60;75.20
18225;DHT22;9237;48.590;8.854;2023-02-28T15:51:58;6.50;76.10
18225;DHT22;9237;48.590;8.854;2023-02-28T15:54:28;6.50;76.10
18225;DHT22;9237;48.590;8.854;2023-02-28T15:56:57;6.60;76.00
18225;DHT22;9237;48.590;8.854;2023-02-28T15:59:29;6.20;76.90
18225;DHT22;9237;48.590;8.854;2023-02-28T16:02:15;6.50;76.30
18225;DHT22;9237;48.590;8.854;2023-02-28T16:04:58;6.20;77.40
18225;DHT22;9237;48.590;8.854;2023-02-28T16:07:27;6.70;75.90
18225;DHT22;9237;48.590;8.854;2023-02-28T16:09:54;7.00;75.20
18225;DHT22;9237;48.590;8.854;2023-02-28T16:12:25;6.30;76.70
18225;DHT22;9237;48.590;8.854;2023-02-28T16:14:54;5.90;77.90
18225;DHT22;9237;48.590;8.854;2023-02-28T16:17:25;5.90;77.90
18225;DHT22;9237;48.590;8.854;2023-02-28T16:19:53;5.80;78.80
18225;DHT22;9237;48.590;8.854;2023-02-28T16:22:19;5.70;79.10
18225;DHT22;9237;48.590;8.854;2023-02-28T16:24:48;5.20;80.70
18225;DHT22;9237;48.590;8.854;2023-02-28T16:27:18;4.90;82.30
18225;DHT22;9237;48.590;8.854;2023-02-28T16:29:46;4.80;81.90
18225;DHT22;9237;48.590;8.854;2023-02-28T16:32:14;4.90;82.50